createdAt,value
2017-07-10T00:00:40.089Z,0
2017-07-10T00:01:52.361Z,0
2017-07-10T00:03:04.980Z,0
2017-07-10T00:04:17.212Z,0
2017-07-10T00:05:29.530Z,0
2017-07-10T00:06:42.080Z,0
2017-07-10T00:07:54.695Z,0
2017-07-10T00:09:07.332Z,0
2017-07-10T00:10:18.991Z,0
2017-07-10T00:11:31.279Z,0
2017-07-10T00:12:43.558Z,0
2017-07-10T00:13:56.093Z,0
2017-07-10T00:15:08.340Z,0
2017-07-10T00:16:20.667Z,0
2017-07-10T00:17:33.287Z,0
2017-07-10T00:18:45.559Z,0
2017-07-10T00:19:58.198Z,0
2017-07-10T00:21:10.504Z,0
2017-07-10T00:22:22.766Z,0
2017-07-10T00:23:34.428Z,0
2017-07-10T00:24:46.365Z,0
2017-07-10T00:25:58.984Z,0
2017-07-10T00:27:11.243Z,0
2017-07-10T00:28:23.825Z,0
2017-07-10T00:29:36.141Z,0
2017-07-10T00:30:48.724Z,0
2017-07-10T00:32:01.284Z,0
2017-07-10T00:33:13.595Z,0
2017-07-10T00:34:26.205Z,0
2017-07-10T00:35:38.813Z,0
2017-07-10T00:36:50.722Z,0
2017-07-10T00:38:02.688Z,0
2017-07-10T00:39:15.258Z,0
2017-07-10T00:40:27.839Z,0
2017-07-10T00:41:40.080Z,0
2017-07-10T00:42:52.098Z,0
2017-07-10T00:44:04.359Z,0
2017-07-10T00:45:16.355Z,0
2017-07-10T00:46:28.620Z,0
2017-07-10T00:47:40.882Z,0
2017-07-10T00:48:53.151Z,0
2017-07-10T00:50:05.396Z,0
2017-07-10T00:51:17.693Z,0
2017-07-10T00:52:30.338Z,0
2017-07-10T00:53:42.638Z,0
2017-07-10T00:54:55.193Z,0
2017-07-10T00:56:07.579Z,0
2017-07-10T00:57:19.522Z,0
2017-07-10T00:58:31.806Z,0
2017-07-10T00:59:44.391Z,0
2017-07-10T01:00:56.977Z,0
2017-07-10T01:02:09.548Z,0
2017-07-10T01:03:21.250Z,0
2017-07-10T01:04:33.184Z,0
2017-07-10T01:05:45.447Z,0
2017-07-10T01:06:57.092Z,0
2017-07-10T01:08:09.391Z,0
2017-07-10T01:09:21.623Z,0
2017-07-10T01:10:33.576Z,0
2017-07-10T01:11:46.198Z,0
2017-07-10T01:12:58.784Z,0
2017-07-10T01:14:10.789Z,0
2017-07-10T01:15:23.011Z,0
2017-07-10T01:16:35.211Z,0
2017-07-10T01:17:47.509Z,0
2017-07-10T01:19:00.104Z,0
2017-07-10T01:20:12.670Z,0
2017-07-10T01:21:24.946Z,0
2017-07-10T01:22:36.272Z,0
2017-07-10T01:23:48.857Z,0
2017-07-10T01:25:01.389Z,0
2017-07-10T01:26:13.672Z,0
2017-07-10T01:27:25.960Z,0
2017-07-10T01:28:38.596Z,0
2017-07-10T01:29:51.224Z,0
2017-07-10T01:31:03.807Z,0
2017-07-10T01:32:16.378Z,0
2017-07-10T01:33:28.592Z,0
2017-07-10T01:34:41.146Z,0
2017-07-10T01:35:53.666Z,0
2017-07-10T01:37:05.587Z,0
2017-07-10T01:38:18.139Z,0
2017-07-10T01:39:30.679Z,0
2017-07-10T01:40:42.654Z,0
2017-07-10T01:41:54.858Z,0
2017-07-10T01:43:06.870Z,0
2017-07-10T01:44:19.173Z,0
2017-07-10T01:45:31.409Z,0
2017-07-10T01:46:43.346Z,0
2017-07-10T01:47:55.900Z,0
2017-07-10T01:49:07.845Z,0
2017-07-10T01:50:20.093Z,0
2017-07-10T01:51:32.613Z,0
2017-07-10T01:52:45.226Z,0
2017-07-10T01:53:57.797Z,0
2017-07-10T01:55:10.060Z,0
2017-07-10T01:56:22.652Z,0
2017-07-10T01:57:35.264Z,0
2017-07-10T01:58:47.600Z,0
2017-07-10T02:00:00.261Z,0
2017-07-10T02:01:12.230Z,0
2017-07-10T02:02:24.492Z,0
2017-07-10T02:03:37.097Z,0
2017-07-10T02:04:49.686Z,0
2017-07-10T02:06:02.288Z,0
2017-07-10T02:07:14.566Z,0
2017-07-10T02:08:26.917Z,0
2017-07-10T02:09:39.194Z,0
2017-07-10T02:10:51.455Z,0
2017-07-10T02:12:04.007Z,0
2017-07-10T02:13:15.964Z,0
2017-07-10T02:14:28.510Z,0
2017-07-10T02:15:40.804Z,0
2017-07-10T02:16:53.383Z,0
2017-07-10T02:18:05.948Z,0
2017-07-10T02:19:18.200Z,0
2017-07-10T02:20:30.790Z,0
2017-07-10T02:21:43.117Z,0
2017-07-10T02:22:55.700Z,0
2017-07-10T02:24:07.609Z,0
2017-07-10T02:25:20.216Z,0
2017-07-10T02:26:32.787Z,0
2017-07-10T02:27:45.302Z,0
2017-07-10T02:28:57.599Z,0
2017-07-10T02:30:09.887Z,0
2017-07-10T02:31:22.428Z,0
2017-07-10T02:32:34.957Z,0
2017-07-10T02:33:47.552Z,0
2017-07-10T02:35:00.159Z,0
2017-07-10T02:36:12.362Z,0
2017-07-10T02:37:24.908Z,0
2017-07-10T02:38:36.882Z,0
2017-07-10T02:39:49.179Z,0
2017-07-10T02:41:01.413Z,0
2017-07-10T02:42:13.366Z,0
2017-07-10T02:43:25.950Z,5
2017-07-10T02:44:38.533Z,5
2017-07-10T02:45:50.460Z,5
2017-07-10T02:47:02.075Z,5
2017-07-10T02:48:14.671Z,5
2017-07-10T02:49:26.293Z,5
2017-07-10T02:50:38.880Z,5
2017-07-10T02:51:51.465Z,5
2017-07-10T02:53:04.122Z,5
2017-07-10T02:54:16.732Z,10
2017-07-10T02:55:29.353Z,10
2017-07-10T02:56:41.593Z,10
2017-07-10T02:57:53.870Z,10
2017-07-10T02:59:06.452Z,10
2017-07-10T03:00:19.059Z,10
2017-07-10T03:01:30.738Z,15
2017-07-10T03:02:43.325Z,15
2017-07-10T03:03:55.593Z,15
2017-07-10T03:05:08.214Z,15
2017-07-10T03:06:20.183Z,15
2017-07-10T03:07:32.807Z,20
2017-07-10T03:08:45.076Z,20
2017-07-10T03:09:57.072Z,20
2017-07-10T03:11:09.655Z,25
2017-07-10T03:12:21.596Z,25
2017-07-10T03:13:33.853Z,30
2017-07-10T03:14:46.124Z,30
2017-07-10T03:15:58.452Z,30
2017-07-10T03:17:10.717Z,35
2017-07-10T03:18:22.675Z,35
2017-07-10T03:19:34.940Z,40
2017-07-10T03:20:47.211Z,40
2017-07-10T03:22:00.107Z,45
2017-07-10T03:23:11.707Z,45
2017-07-10T03:24:24.329Z,50
2017-07-10T03:25:36.919Z,50
2017-07-10T03:26:49.533Z,55
2017-07-10T03:28:01.811Z,60
2017-07-10T03:29:14.400Z,60
2017-07-10T03:30:25.736Z,60
2017-07-10T03:31:37.702Z,65
2017-07-10T03:32:49.970Z,65
2017-07-10T03:34:02.298Z,70
2017-07-10T03:35:14.885Z,75
2017-07-10T03:36:27.114Z,75
2017-07-10T03:37:39.055Z,80
2017-07-10T03:38:51.717Z,85
2017-07-10T03:40:04.306Z,85
2017-07-10T03:41:16.566Z,90
2017-07-10T03:42:29.142Z,90
2017-07-10T03:43:41.136Z,90
2017-07-10T03:44:53.109Z,90
2017-07-10T03:46:05.717Z,90
2017-07-10T03:47:17.952Z,90
2017-07-10T03:48:29.603Z,95
2017-07-10T03:49:42.163Z,95
2017-07-10T03:50:54.824Z,100
2017-07-10T03:52:07.416Z,100
2017-07-10T03:53:20.054Z,105
2017-07-10T03:54:32.658Z,105
2017-07-10T03:55:44.619Z,110
2017-07-10T03:56:57.188Z,110
2017-07-10T03:58:09.761Z,110
2017-07-10T03:59:22.636Z,115
2017-07-10T04:00:34.938Z,115
2017-07-10T04:01:47.522Z,115
2017-07-10T04:02:59.810Z,120
2017-07-10T04:04:12.371Z,125
2017-07-10T04:05:24.941Z,125
2017-07-10T04:06:37.517Z,130
2017-07-10T04:07:49.521Z,130
2017-07-10T04:09:01.772Z,135
2017-07-10T04:10:13.716Z,140
2017-07-10T04:11:25.407Z,140
2017-07-10T04:12:37.703Z,145
2017-07-10T04:13:50.267Z,155
2017-07-10T04:15:02.844Z,155
2017-07-10T04:16:15.173Z,160
2017-07-10T04:17:27.793Z,165
2017-07-10T04:18:40.015Z,175
2017-07-10T04:19:52.239Z,185
2017-07-10T04:21:04.565Z,185
2017-07-10T04:22:16.777Z,190
2017-07-10T04:23:28.433Z,200
2017-07-10T04:24:40.123Z,200
2017-07-10T04:25:52.722Z,210
2017-07-10T04:27:05.036Z,215
2017-07-10T04:28:17.288Z,225
2017-07-10T04:29:29.260Z,230
2017-07-10T04:30:41.586Z,235
2017-07-10T04:31:54.148Z,240
2017-07-10T04:33:06.402Z,245
2017-07-10T04:34:19.016Z,250
2017-07-10T04:35:31.640Z,250
2017-07-10T04:36:43.907Z,255
2017-07-10T04:37:56.481Z,255
2017-07-10T04:39:09.057Z,260
2017-07-10T04:40:21.297Z,265
2017-07-10T04:41:33.840Z,270
2017-07-10T04:42:45.530Z,270
2017-07-10T04:43:58.129Z,275
2017-07-10T04:45:10.653Z,280
2017-07-10T04:46:23.195Z,285
2017-07-10T04:47:35.097Z,290
2017-07-10T04:48:47.626Z,295
2017-07-10T04:50:00.215Z,295
2017-07-10T04:51:12.429Z,300
2017-07-10T04:52:25.081Z,305
2017-07-10T04:53:37.652Z,300
2017-07-10T04:54:49.971Z,305
2017-07-10T04:56:01.912Z,305
2017-07-10T04:57:14.179Z,310
2017-07-10T04:58:26.486Z,315
2017-07-10T04:59:39.104Z,315
2017-07-10T05:00:51.726Z,320
2017-07-10T05:02:04.018Z,320
2017-07-10T05:03:16.317Z,325
2017-07-10T05:04:28.891Z,325
2017-07-10T05:05:41.492Z,330
2017-07-10T05:06:54.057Z,330
2017-07-10T05:08:06.103Z,335
2017-07-10T05:09:18.704Z,335
2017-07-10T05:10:30.963Z,340
2017-07-10T05:11:43.017Z,340
2017-07-10T05:12:55.592Z,350
2017-07-10T05:14:07.845Z,345
2017-07-10T05:15:20.409Z,345
2017-07-10T05:16:32.743Z,340
2017-07-10T05:17:45.066Z,340
2017-07-10T05:18:57.661Z,340
2017-07-10T05:20:09.941Z,340
2017-07-10T05:21:22.235Z,335
2017-07-10T05:22:34.196Z,330
2017-07-10T05:23:45.857Z,325
2017-07-10T05:24:58.103Z,320
2017-07-10T05:26:10.713Z,315
2017-07-10T05:27:22.956Z,320
2017-07-10T05:28:35.509Z,310
2017-07-10T05:29:48.110Z,315
2017-07-10T05:31:00.410Z,315
2017-07-10T05:32:13.001Z,325
2017-07-10T05:33:25.298Z,335
2017-07-10T05:34:37.313Z,335
2017-07-10T05:35:49.295Z,340
2017-07-10T05:37:01.873Z,345
2017-07-10T05:38:14.119Z,350
2017-07-10T05:39:26.347Z,355
2017-07-10T05:40:39.014Z,365
2017-07-10T05:41:51.307Z,370
2017-07-10T05:43:03.587Z,375
2017-07-10T05:44:16.149Z,385
2017-07-10T05:45:28.719Z,400
2017-07-10T05:46:41.278Z,415
2017-07-10T05:47:53.887Z,430
2017-07-10T05:49:06.439Z,445
2017-07-10T05:50:18.979Z,460
2017-07-10T05:51:31.547Z,465
2017-07-10T05:52:43.507Z,470
2017-07-10T05:53:56.222Z,465
2017-07-10T05:55:08.865Z,460
2017-07-10T05:56:21.184Z,455
2017-07-10T05:57:33.465Z,440
2017-07-10T05:58:45.437Z,435
2017-07-10T05:59:57.971Z,420
2017-07-10T06:01:09.918Z,420
2017-07-10T06:02:22.463Z,415
2017-07-10T06:03:34.676Z,420
2017-07-10T06:04:47.130Z,420
2017-07-10T06:05:59.400Z,425
2017-07-10T06:07:11.385Z,430
2017-07-10T06:08:23.671Z,435
2017-07-10T06:09:35.931Z,440
2017-07-10T06:10:48.502Z,430
2017-07-10T06:12:00.404Z,425
2017-07-10T06:13:12.663Z,425
2017-07-10T06:14:25.226Z,425
2017-07-10T06:15:36.598Z,435
2017-07-10T06:16:48.843Z,450
2017-07-10T06:18:01.111Z,470
2017-07-10T06:19:13.068Z,490
2017-07-10T06:20:25.654Z,520
2017-07-10T06:21:37.629Z,525
2017-07-10T06:22:49.880Z,540
2017-07-10T06:24:02.140Z,545
2017-07-10T06:25:14.742Z,560
2017-07-10T06:26:27.268Z,620
2017-07-10T06:27:39.502Z,660
2017-07-10T06:28:52.074Z,730
2017-07-10T06:30:04.697Z,705
2017-07-10T06:31:17.295Z,665
2017-07-10T06:32:29.599Z,635
2017-07-10T06:33:41.343Z,625
2017-07-10T06:34:52.745Z,620
2017-07-10T06:36:05.324Z,635
2017-07-10T06:37:17.622Z,625
2017-07-10T06:38:30.221Z,625
2017-07-10T06:39:42.867Z,615
2017-07-10T06:40:54.543Z,615
2017-07-10T06:42:06.545Z,560
2017-07-10T06:43:18.775Z,540
2017-07-10T06:44:31.022Z,495
2017-07-10T06:45:43.628Z,450
2017-07-10T06:46:56.254Z,420
2017-07-10T06:48:08.219Z,405
2017-07-10T06:49:20.224Z,395
2017-07-10T06:50:32.843Z,390
2017-07-10T06:51:45.118Z,385
2017-07-10T06:52:57.343Z,375
2017-07-10T06:54:09.271Z,370
2017-07-10T06:55:21.586Z,360
2017-07-10T06:56:33.557Z,355
2017-07-10T06:57:46.255Z,355
2017-07-10T06:58:58.796Z,355
2017-07-10T07:00:11.148Z,360
2017-07-10T07:01:22.798Z,360
2017-07-10T07:02:34.433Z,365
2017-07-10T07:03:46.683Z,370
2017-07-10T07:04:58.632Z,375
2017-07-10T07:06:10.602Z,390
2017-07-10T07:07:22.870Z,400
2017-07-10T07:08:35.513Z,410
2017-07-10T07:09:47.750Z,420
2017-07-10T07:10:59.731Z,430
2017-07-10T07:12:12.318Z,435
2017-07-10T07:13:24.902Z,445
2017-07-10T07:14:37.229Z,470
2017-07-10T07:15:49.542Z,500
2017-07-10T07:17:02.140Z,510
2017-07-10T07:18:14.358Z,520
2017-07-10T07:19:26.591Z,520
2017-07-10T07:20:38.947Z,520
2017-07-10T07:21:51.529Z,515
2017-07-10T07:23:03.788Z,510
2017-07-10T07:24:15.135Z,515
2017-07-10T07:25:27.067Z,520
2017-07-10T07:26:39.654Z,520
2017-07-10T07:27:51.926Z,515
2017-07-10T07:29:04.518Z,495
2017-07-10T07:30:16.804Z,475
2017-07-10T07:31:29.441Z,455
2017-07-10T07:32:41.449Z,435
2017-07-10T07:33:53.683Z,425
2017-07-10T07:35:05.948Z,430
2017-07-10T07:36:18.225Z,435
2017-07-10T07:37:30.547Z,445
2017-07-10T07:38:42.827Z,450
2017-07-10T07:39:55.443Z,455
2017-07-10T07:41:07.781Z,445
2017-07-10T07:42:20.341Z,405
2017-07-10T07:43:32.269Z,375
2017-07-10T07:44:44.468Z,365
2017-07-10T07:45:56.388Z,365
2017-07-10T07:47:08.088Z,375
2017-07-10T07:48:19.440Z,385
2017-07-10T07:49:32.023Z,390
2017-07-10T07:50:44.312Z,395
2017-07-10T07:51:56.297Z,385
2017-07-10T07:53:08.299Z,375
2017-07-10T07:54:19.976Z,355
2017-07-10T07:55:32.572Z,330
2017-07-10T07:56:45.162Z,315
2017-07-10T07:57:57.502Z,295
2017-07-10T07:59:10.095Z,270
2017-07-10T08:00:22.697Z,250
2017-07-10T08:01:35.376Z,230
2017-07-10T08:02:47.661Z,205
2017-07-10T08:03:59.956Z,190
2017-07-10T08:05:11.603Z,175
2017-07-10T08:06:24.226Z,160
2017-07-10T08:07:36.867Z,150
2017-07-10T08:08:48.509Z,145
2017-07-10T08:10:00.472Z,140
2017-07-10T08:11:12.787Z,140
2017-07-10T08:12:25.147Z,130
2017-07-10T08:13:37.476Z,120
2017-07-10T08:14:50.070Z,105
2017-07-10T08:16:02.734Z,90
2017-07-10T08:17:15.331Z,80
2017-07-10T08:18:27.276Z,70
2017-07-10T08:19:39.240Z,60
2017-07-10T08:20:51.818Z,55
2017-07-10T08:22:04.075Z,50
2017-07-10T08:23:15.427Z,45
2017-07-10T08:24:27.392Z,45
2017-07-10T08:25:39.014Z,45
2017-07-10T08:26:50.653Z,50
2017-07-10T08:28:02.311Z,55
2017-07-10T08:29:14.301Z,60
2017-07-10T08:30:26.564Z,60
2017-07-10T08:31:38.206Z,60
2017-07-10T08:32:50.182Z,55
2017-07-10T08:34:02.101Z,50
2017-07-10T08:35:14.687Z,50
2017-07-10T08:36:27.290Z,50
2017-07-10T08:37:39.922Z,50
2017-07-10T08:38:52.483Z,45
2017-07-10T08:40:04.732Z,45
2017-07-10T08:41:17.380Z,45
2017-07-10T08:42:29.370Z,45
2017-07-10T08:43:41.898Z,40
2017-07-10T08:44:53.894Z,45
2017-07-10T08:46:05.877Z,45
2017-07-10T08:47:17.541Z,50
2017-07-10T08:48:29.806Z,50
2017-07-10T08:49:42.053Z,50
2017-07-10T08:50:54.594Z,50
2017-07-10T08:52:06.901Z,50
2017-07-10T08:53:18.884Z,50
2017-07-10T08:54:31.147Z,55
2017-07-10T08:55:43.707Z,55
2017-07-10T08:56:55.700Z,55
2017-07-10T08:58:07.741Z,55
2017-07-10T08:59:19.725Z,55
2017-07-10T09:00:32.013Z,50
2017-07-10T09:01:44.280Z,45
2017-07-10T09:02:56.852Z,40
2017-07-10T09:04:09.440Z,40
2017-07-10T09:05:21.999Z,40
2017-07-10T09:06:33.956Z,45
2017-07-10T09:07:46.235Z,45
2017-07-10T09:08:58.884Z,50
2017-07-10T09:10:11.183Z,50
2017-07-10T09:11:23.733Z,55
2017-07-10T09:12:35.994Z,55
2017-07-10T09:13:48.622Z,60
2017-07-10T09:15:00.535Z,60
2017-07-10T09:16:11.907Z,60
2017-07-10T09:17:24.204Z,65
2017-07-10T09:18:35.823Z,65
2017-07-10T09:19:48.094Z,70
2017-07-10T09:21:00.040Z,75
2017-07-10T09:22:12.287Z,80
2017-07-10T09:23:23.924Z,85
2017-07-10T09:24:36.255Z,90
2017-07-10T09:25:48.199Z,100
2017-07-10T09:27:00.496Z,105
2017-07-10T09:28:12.447Z,115
2017-07-10T09:29:24.373Z,120
2017-07-10T09:30:35.657Z,130
2017-07-10T09:31:47.615Z,140
2017-07-10T09:32:59.928Z,150
2017-07-10T09:34:11.576Z,160
2017-07-10T09:35:24.179Z,160
2017-07-10T09:36:36.886Z,155
2017-07-10T09:37:49.507Z,140
2017-07-10T09:39:01.809Z,130
2017-07-10T09:40:14.078Z,125
2017-07-10T09:41:25.421Z,125
2017-07-10T09:42:37.617Z,130
2017-07-10T09:43:50.188Z,140
2017-07-10T09:45:02.425Z,145
2017-07-10T09:46:14.061Z,150
2017-07-10T09:47:26.400Z,150
2017-07-10T09:48:38.952Z,145
2017-07-10T09:49:51.524Z,135
2017-07-10T09:51:04.088Z,120
2017-07-10T09:52:16.320Z,105
2017-07-10T09:53:28.929Z,95
2017-07-10T09:54:41.518Z,90
2017-07-10T09:55:53.446Z,90
2017-07-10T09:57:05.792Z,95
2017-07-10T09:58:17.996Z,100
2017-07-10T09:59:30.566Z,100
2017-07-10T10:00:42.830Z,105
2017-07-10T10:01:55.432Z,105
2017-07-10T10:03:08.071Z,105
2017-07-10T10:04:20.320Z,105
2017-07-10T10:05:32.667Z,100
2017-07-10T10:06:44.909Z,100
2017-07-10T10:07:57.230Z,100
2017-07-10T10:09:08.906Z,110
2017-07-10T10:10:21.515Z,125
2017-07-10T10:11:33.768Z,140
2017-07-10T10:12:45.397Z,145
2017-07-10T10:13:57.989Z,150
2017-07-10T10:15:09.947Z,155
2017-07-10T10:16:22.253Z,165
2017-07-10T10:17:34.852Z,180
2017-07-10T10:18:47.486Z,190
2017-07-10T10:20:00.013Z,200
2017-07-10T10:21:11.372Z,210
2017-07-10T10:22:23.342Z,215
2017-07-10T10:23:35.588Z,220
2017-07-10T10:24:47.898Z,220
2017-07-10T10:26:00.522Z,225
2017-07-10T10:27:12.496Z,225
2017-07-10T10:28:24.835Z,230
2017-07-10T10:29:36.763Z,235
2017-07-10T10:30:49.101Z,240
2017-07-10T10:32:01.676Z,250
2017-07-10T10:33:14.002Z,265
2017-07-10T10:34:26.607Z,280
2017-07-10T10:35:38.567Z,295
2017-07-10T10:36:50.182Z,310
2017-07-10T10:38:02.469Z,330
2017-07-10T10:39:14.851Z,345
2017-07-10T10:40:26.794Z,365
2017-07-10T10:41:38.965Z,375
2017-07-10T10:42:51.662Z,390
2017-07-10T10:44:03.947Z,400
2017-07-10T10:45:15.002Z,410
2017-07-10T10:46:27.581Z,415
2017-07-10T10:47:40.120Z,415
2017-07-10T10:48:52.127Z,415
2017-07-10T10:50:04.699Z,420
2017-07-10T10:51:16.932Z,420
2017-07-10T10:52:28.580Z,435
2017-07-10T10:53:40.529Z,435
2017-07-10T10:54:52.799Z,450
2017-07-10T10:56:04.773Z,460
2017-07-10T10:57:17.468Z,475
2017-07-10T10:58:29.415Z,470
2017-07-10T10:59:40.778Z,460
2017-07-10T11:00:53.043Z,455
2017-07-10T11:02:05.332Z,460
2017-07-10T11:03:16.995Z,480
2017-07-10T11:04:29.619Z,505
2017-07-10T11:05:41.945Z,515
2017-07-10T11:06:54.541Z,520
2017-07-10T11:08:06.895Z,495
2017-07-10T11:09:19.522Z,490
2017-07-10T11:10:32.171Z,510
2017-07-10T11:11:44.114Z,500
2017-07-10T11:12:56.417Z,495
2017-07-10T11:14:08.380Z,475
2017-07-10T11:15:20.958Z,470
2017-07-10T11:16:32.916Z,500
2017-07-10T11:17:44.921Z,530
2017-07-10T11:18:57.481Z,620
2017-07-10T11:20:09.391Z,735
2017-07-10T11:21:21.981Z,815
2017-07-10T11:22:33.937Z,810
2017-07-10T11:23:46.204Z,575
2017-07-10T11:24:58.480Z,695
2017-07-10T11:26:10.151Z,715
2017-07-10T11:27:22.725Z,640
2017-07-10T11:28:35.023Z,720
2017-07-10T11:29:46.655Z,660
2017-07-10T11:30:59.215Z,395
2017-07-10T11:32:11.526Z,320
2017-07-10T11:33:24.210Z,320
2017-07-10T11:34:36.411Z,265
2017-07-10T11:35:48.714Z,210
2017-07-10T11:37:01.019Z,240
2017-07-10T11:38:12.974Z,250
2017-07-10T11:39:25.576Z,265
2017-07-10T11:40:37.844Z,215
2017-07-10T11:41:49.813Z,145
2017-07-10T11:43:02.085Z,125
2017-07-10T11:44:14.679Z,210
2017-07-10T11:45:26.936Z,230
2017-07-10T11:46:39.221Z,285
2017-07-10T11:47:51.492Z,345
2017-07-10T11:49:03.806Z,260
2017-07-10T11:50:16.433Z,200
2017-07-10T11:51:28.747Z,235
2017-07-10T11:52:41.043Z,265
2017-07-10T11:53:53.296Z,315
2017-07-10T11:55:05.528Z,310
2017-07-10T11:56:17.556Z,280
2017-07-10T11:57:29.471Z,335
2017-07-10T11:58:41.712Z,350
2017-07-10T11:59:54.350Z,250
2017-07-10T12:01:06.050Z,200
2017-07-10T12:02:17.668Z,190
2017-07-10T12:03:29.626Z,240
2017-07-10T12:04:42.222Z,225
2017-07-10T12:05:54.535Z,205
2017-07-10T12:07:07.113Z,200
2017-07-10T12:08:19.435Z,255
2017-07-10T12:09:32.047Z,315
2017-07-10T12:10:44.318Z,360
2017-07-10T12:11:56.925Z,420
2017-07-10T12:13:09.207Z,435
2017-07-10T12:14:20.488Z,550
2017-07-10T12:15:32.123Z,580
2017-07-10T12:16:44.420Z,630
2017-07-10T12:17:56.378Z,570
2017-07-10T12:19:08.371Z,670
2017-07-10T12:20:20.033Z,825
2017-07-10T12:21:31.979Z,875
2017-07-10T12:22:43.924Z,870
2017-07-10T12:23:55.598Z,750
2017-07-10T12:25:07.316Z,685
2017-07-10T12:26:19.570Z,770
2017-07-10T12:27:32.122Z,795
2017-07-10T12:28:44.447Z,950
2017-07-10T12:29:57.043Z,970
2017-07-10T12:31:09.321Z,750
2017-07-10T12:32:21.884Z,670
2017-07-10T12:33:34.192Z,685
2017-07-10T12:34:46.753Z,615
2017-07-10T12:35:58.716Z,540
2017-07-10T12:37:10.950Z,475
2017-07-10T12:38:23.183Z,510
2017-07-10T12:39:34.874Z,555
2017-07-10T12:40:47.726Z,520
2017-07-10T12:42:00.008Z,545
2017-07-10T12:43:12.681Z,490
2017-07-10T12:44:25.258Z,465
2017-07-10T12:45:37.854Z,435
2017-07-10T12:46:50.205Z,390
2017-07-10T12:48:02.214Z,445
2017-07-10T12:49:14.174Z,695
2017-07-10T12:50:26.443Z,880
2017-07-10T12:51:39.059Z,845
2017-07-10T12:52:51.698Z,825
2017-07-10T12:54:04.250Z,980
2017-07-10T12:55:15.896Z,1230
2017-07-10T12:56:28.189Z,1725
2017-07-10T12:57:40.431Z,2265
2017-07-10T12:58:52.983Z,2110
2017-07-10T13:00:05.200Z,2530
2017-07-10T13:01:16.862Z,1305
2017-07-10T13:02:28.877Z,1640
2017-07-10T13:03:41.471Z,1750
2017-07-10T13:04:54.331Z,1080
2017-07-10T13:06:06.306Z,855
2017-07-10T13:07:18.624Z,745
2017-07-10T13:08:30.263Z,935
2017-07-10T13:09:42.240Z,1195
2017-07-10T13:10:52.989Z,770
2017-07-10T13:12:04.951Z,925
2017-07-10T13:13:17.222Z,795
2017-07-10T13:14:29.476Z,915
2017-07-10T13:15:42.052Z,700
2017-07-10T13:16:54.342Z,600
2017-07-10T13:18:06.606Z,855
2017-07-10T13:19:18.592Z,950
2017-07-10T13:20:30.860Z,785
2017-07-10T13:21:43.118Z,625
2017-07-10T13:22:55.099Z,500
2017-07-10T13:24:07.378Z,640
2017-07-10T13:25:19.944Z,685
2017-07-10T13:26:31.559Z,580
2017-07-10T13:27:43.234Z,585
2017-07-10T13:28:54.952Z,505
2017-07-10T13:30:06.864Z,565
2017-07-10T13:31:19.143Z,620
2017-07-10T13:32:31.114Z,710
2017-07-10T13:33:43.726Z,690
2017-07-10T13:34:56.332Z,635
2017-07-10T13:36:08.282Z,555
2017-07-10T13:37:20.005Z,600
2017-07-10T13:38:32.644Z,850
2017-07-10T13:39:44.893Z,810
2017-07-10T13:40:56.838Z,725
2017-07-10T13:42:08.789Z,660
2017-07-10T13:43:20.120Z,610
2017-07-10T13:44:32.685Z,555
2017-07-10T13:45:45.006Z,445
2017-07-10T13:46:57.601Z,390
2017-07-10T13:48:09.314Z,365
2017-07-10T13:49:21.868Z,465
2017-07-10T13:50:34.467Z,610
2017-07-10T13:51:46.726Z,760
2017-07-10T13:52:58.980Z,685
2017-07-10T13:54:10.971Z,665
2017-07-10T13:55:23.215Z,705
2017-07-10T13:56:35.225Z,820
2017-07-10T13:57:47.504Z,785
2017-07-10T13:58:59.999Z,710
2017-07-10T14:00:11.976Z,740
2017-07-10T14:01:24.276Z,780
2017-07-10T14:02:36.910Z,715
2017-07-10T14:03:49.225Z,630
2017-07-10T14:05:01.890Z,635
2017-07-10T14:06:14.211Z,665
2017-07-10T14:07:26.801Z,750
2017-07-10T14:08:39.347Z,1255
2017-07-10T14:09:51.643Z,1130
2017-07-10T14:11:04.268Z,985
2017-07-10T14:12:16.602Z,935
2017-07-10T14:13:28.978Z,915
2017-07-10T14:14:41.596Z,845
2017-07-10T14:15:54.228Z,675
2017-07-10T14:17:06.194Z,605
2017-07-10T14:18:18.512Z,595
2017-07-10T14:19:30.780Z,555
2017-07-10T14:20:43.337Z,545
2017-07-10T14:21:55.325Z,515
2017-07-10T14:23:06.666Z,410
2017-07-10T14:24:18.630Z,420
2017-07-10T14:25:30.534Z,460
2017-07-10T14:26:42.883Z,590
2017-07-10T14:27:55.205Z,700
2017-07-10T14:29:06.945Z,640
2017-07-10T14:30:18.898Z,780
2017-07-10T14:31:30.883Z,620
2017-07-10T14:32:42.520Z,540
2017-07-10T14:33:53.216Z,555
2017-07-10T14:35:04.852Z,515
2017-07-10T14:36:16.565Z,600
2017-07-10T14:37:28.895Z,690
2017-07-10T14:38:41.449Z,730
2017-07-10T14:39:53.711Z,760
2017-07-10T14:41:05.683Z,765
2017-07-10T14:42:17.920Z,765
2017-07-10T14:43:29.591Z,790
2017-07-10T14:44:41.901Z,765
2017-07-10T14:45:54.498Z,740
2017-07-10T14:47:07.091Z,705
2017-07-10T14:48:19.669Z,615
2017-07-10T14:49:32.046Z,700
2017-07-10T14:50:44.586Z,385
2017-07-10T14:51:56.848Z,500
2017-07-10T14:53:08.770Z,820
2017-07-10T14:54:21.318Z,860
2017-07-10T14:55:33.608Z,940
2017-07-10T14:56:45.590Z,905
2017-07-10T14:57:58.179Z,865
2017-07-10T14:59:10.738Z,730
2017-07-10T15:00:22.980Z,655
2017-07-10T15:01:35.618Z,590
2017-07-10T15:02:47.245Z,630
2017-07-10T15:03:59.784Z,680
2017-07-10T15:05:12.442Z,595
2017-07-10T15:06:25.002Z,375
2017-07-10T15:07:37.048Z,295
2017-07-10T15:08:49.294Z,235
2017-07-10T15:10:01.836Z,215
2017-07-10T15:11:14.159Z,225
2017-07-10T15:12:26.203Z,235
2017-07-10T15:13:38.149Z,250
2017-07-10T15:14:50.093Z,275
2017-07-10T15:16:02.326Z,290
2017-07-10T15:17:14.638Z,300
2017-07-10T15:18:26.993Z,310
2017-07-10T15:19:39.551Z,315
2017-07-10T15:20:51.846Z,310
2017-07-10T15:22:03.479Z,300
2017-07-10T15:23:15.182Z,280
2017-07-10T15:24:26.911Z,255
2017-07-10T15:25:39.172Z,220
2017-07-10T15:26:51.195Z,205
2017-07-10T15:28:03.577Z,190
2017-07-10T15:29:15.830Z,185
2017-07-10T15:30:28.121Z,170
2017-07-10T15:31:40.390Z,160
2017-07-10T15:32:52.682Z,150
2017-07-10T15:34:04.688Z,145
2017-07-10T15:35:16.680Z,140
2017-07-10T15:36:29.301Z,140
2017-07-10T15:37:41.915Z,135
2017-07-10T15:38:54.260Z,135
2017-07-10T15:40:06.899Z,135
2017-07-10T15:41:19.460Z,140
2017-07-10T15:42:31.454Z,140
2017-07-10T15:43:43.408Z,140
2017-07-10T15:44:55.397Z,140
2017-07-10T15:46:07.913Z,140
2017-07-10T15:47:19.868Z,135
2017-07-10T15:48:32.192Z,135
2017-07-10T15:49:44.799Z,130
2017-07-10T15:50:56.752Z,125
2017-07-10T15:52:09.354Z,120
2017-07-10T15:53:21.612Z,115
2017-07-10T15:54:34.187Z,115
2017-07-10T15:55:46.492Z,110
2017-07-10T15:56:59.075Z,110
2017-07-10T15:58:10.982Z,105
2017-07-10T15:59:23.577Z,105
2017-07-10T16:00:35.516Z,100
2017-07-10T16:01:48.159Z,100
2017-07-10T16:03:00.131Z,100
2017-07-10T16:04:12.057Z,95
2017-07-10T16:05:24.678Z,95
2017-07-10T16:06:36.929Z,90
2017-07-10T16:07:48.893Z,90
2017-07-10T16:08:59.925Z,95
2017-07-10T16:10:11.561Z,95
2017-07-10T16:11:23.479Z,100
2017-07-10T16:12:34.790Z,115
2017-07-10T16:13:47.355Z,130
2017-07-10T16:14:59.691Z,155
2017-07-10T16:16:11.926Z,170
2017-07-10T16:17:24.183Z,185
2017-07-10T16:18:35.819Z,190
2017-07-10T16:19:48.122Z,195
2017-07-10T16:21:00.379Z,195
2017-07-10T16:22:12.638Z,195
2017-07-10T16:23:23.677Z,205
2017-07-10T16:24:35.596Z,210
2017-07-10T16:25:47.905Z,225
2017-07-10T16:27:00.522Z,245
2017-07-10T16:28:12.494Z,265
2017-07-10T16:29:24.820Z,275
2017-07-10T16:30:37.102Z,295
2017-07-10T16:31:49.691Z,310
2017-07-10T16:33:02.202Z,315
2017-07-10T16:34:14.738Z,310
2017-07-10T16:35:27.043Z,310
2017-07-10T16:36:39.318Z,325
2017-07-10T16:37:52.028Z,365
2017-07-10T16:39:04.624Z,415
2017-07-10T16:40:16.887Z,470
2017-07-10T16:41:29.505Z,555
2017-07-10T16:42:41.837Z,655
2017-07-10T16:43:54.433Z,695
2017-07-10T16:45:07.091Z,670
2017-07-10T16:46:19.606Z,590
2017-07-10T16:47:32.153Z,530
2017-07-10T16:48:44.757Z,510
2017-07-10T16:49:56.397Z,500
2017-07-10T16:51:08.444Z,495